createdAt,value
2023-10-26T00:01:22.129Z,98734.16
2023-10-26T00:03:51.572Z,98735.03
2023-10-26T00:06:18.319Z,98722.00
2023-10-26T00:08:50.197Z,98711.63
2023-10-26T00:11:17.044Z,98704.72
2023-10-26T00:13:43.815Z,98706.56
2023-10-26T00:16:10.542Z,98712.63
2023-10-26T00:18:37.647Z,98710.00
2023-10-26T00:21:09.398Z,98700.50
2023-10-26T00:23:38.317Z,98703.97
2023-10-26T00:26:05.314Z,98702.25
2023-10-26T00:28:34.469Z,98691.81
2023-10-26T00:31:01.196Z,98699.63
2023-10-26T00:33:27.928Z,98690.06
2023-10-26T00:35:54.651Z,98687.44
2023-10-26T00:38:24.259Z,98689.16
2023-10-26T00:40:50.993Z,98690.88
2023-10-26T00:43:23.586Z,98676.97
2023-10-26T00:45:51.798Z,98690.88
2023-10-26T00:48:21.376Z,98680.47
2023-10-26T00:50:50.859Z,98683.09
2023-10-26T00:53:20.325Z,98679.63
2023-10-26T00:55:50.592Z,98686.56
2023-10-26T00:58:17.604Z,98684.84
2023-10-26T01:00:44.485Z,98678.78
2023-10-26T01:03:11.495Z,98679.72
2023-10-26T01:05:40.645Z,98679.75
2023-10-26T01:08:07.687Z,98675.41
2023-10-26T01:10:34.954Z,98668.53
2023-10-26T01:13:02.187Z,98670.31
2023-10-26T01:15:29.322Z,98666.97
2023-10-26T01:17:56.069Z,98674.94
2023-10-26T01:20:25.317Z,98665.47
2023-10-26T01:22:55.050Z,98675.09
2023-10-26T01:25:22.014Z,98656.91
2023-10-26T01:27:51.250Z,98656.91
2023-10-26T01:30:22.865Z,98657.81
2023-10-26T01:32:52.177Z,98647.41
2023-10-26T01:35:18.928Z,98651.78
2023-10-26T01:37:45.600Z,98657.88
2023-10-26T01:40:16.415Z,98660.50
2023-10-26T01:42:43.114Z,98663.16
2023-10-26T01:45:10.077Z,98660.59
2023-10-26T01:47:41.116Z,98661.44
2023-10-26T01:50:11.315Z,98663.16
2023-10-26T01:52:41.111Z,98663.94
2023-10-26T01:55:08.447Z,98662.22
2023-10-26T01:57:35.093Z,98664.81
2023-10-26T02:00:07.108Z,98653.53
2023-10-26T02:02:38.760Z,98652.72
2023-10-26T02:05:05.793Z,98650.94
2023-10-26T02:07:34.606Z,98639.59
2023-10-26T02:10:01.668Z,98640.41
2023-10-26T02:12:28.349Z,98646.38
2023-10-26T02:14:55.137Z,98647.19
2023-10-26T02:17:21.774Z,98649.78
2023-10-26T02:19:48.491Z,98642.88
2023-10-26T02:22:15.713Z,98644.66
2023-10-26T02:24:43.767Z,98651.59
2023-10-26T02:27:13.321Z,98648.16
2023-10-26T02:29:40.355Z,98638.63
2023-10-26T02:32:07.319Z,98641.19
2023-10-26T02:34:33.984Z,98643.78
2023-10-26T02:37:03.080Z,98639.41
2023-10-26T02:39:33.005Z,98633.34
2023-10-26T02:41:59.828Z,98642.06
2023-10-26T02:44:26.463Z,98641.16
2023-10-26T02:46:53.140Z,98642.03
2023-10-26T02:49:25.173Z,98642.91
2023-10-26T02:51:53.860Z,98645.50
2023-10-26T02:54:20.660Z,98645.44
2023-10-26T02:56:48.334Z,98642.00
2023-10-26T02:59:17.332Z,98639.47
2023-10-26T03:01:43.954Z,98633.41
2023-10-26T03:04:10.749Z,98634.31
2023-10-26T03:06:40.592Z,98629.97
2023-10-26T03:09:09.362Z,98636.03
2023-10-26T03:11:38.566Z,98638.66
2023-10-26T03:14:05.733Z,98628.25
2023-10-26T03:16:39.306Z,98628.31
2023-10-26T03:19:07.203Z,98625.66
2023-10-26T03:21:37.546Z,98633.44
2023-10-26T03:24:09.667Z,98632.56
2023-10-26T03:26:38.793Z,98640.34
2023-10-26T03:29:05.547Z,98645.56
2023-10-26T03:31:34.686Z,98649.09
2023-10-26T03:34:01.322Z,98644.69
2023-10-26T03:36:30.473Z,98648.22
2023-10-26T03:38:59.713Z,98648.22
2023-10-26T03:41:29.818Z,98642.13
2023-10-26T03:43:56.980Z,98651.69
2023-10-26T03:46:23.708Z,98649.94
2023-10-26T03:48:52.894Z,98654.31
2023-10-26T03:51:23.002Z,98652.63
2023-10-26T03:53:49.761Z,98651.78
2023-10-26T03:56:17.401Z,98637.00
2023-10-26T03:58:44.191Z,98640.50
2023-10-26T04:01:11.910Z,98643.97
2023-10-26T04:03:38.897Z,98637.13
2023-10-26T04:06:08.117Z,98635.38
2023-10-26T04:08:34.840Z,98638.00
2023-10-26T04:11:01.542Z,98637.19
2023-10-26T04:13:32.055Z,98643.28
2023-10-26T04:16:06.845Z,98652.84
2023-10-26T04:18:33.970Z,98643.25
2023-10-26T04:21:00.875Z,98637.16
2023-10-26T04:23:30.082Z,98638.00
2023-10-26T04:25:57.102Z,98644.06
2023-10-26T04:28:28.537Z,98642.25
2023-10-26T04:30:57.765Z,98642.25
2023-10-26T04:33:24.509Z,98638.75
2023-10-26T04:35:52.226Z,98648.25
2023-10-26T04:38:18.904Z,98645.63
2023-10-26T04:40:45.610Z,98637.78
2023-10-26T04:43:19.766Z,98648.16
2023-10-26T04:45:48.155Z,98642.97
2023-10-26T04:48:14.877Z,98640.31
2023-10-26T04:50:41.621Z,98639.41
2023-10-26T04:53:10.938Z,98644.56
2023-10-26T04:55:37.577Z,98635.84
2023-10-26T04:58:04.708Z,98628.06
2023-10-26T05:00:31.912Z,98632.38
2023-10-26T05:02:58.744Z,98635.03
2023-10-26T05:05:27.689Z,98634.19
2023-10-26T05:07:54.521Z,98629.78
2023-10-26T05:10:21.522Z,98637.69
2023-10-26T05:12:48.485Z,98642.94
2023-10-26T05:15:17.794Z,98635.97
2023-10-26T05:17:44.508Z,98641.09
2023-10-26T05:20:13.625Z,98637.56
2023-10-26T05:22:43.898Z,98634.97
2023-10-26T05:25:13.913Z,98640.09
2023-10-26T05:27:40.694Z,98648.72
2023-10-26T05:30:09.964Z,98658.19
2023-10-26T05:32:40.147Z,98653.78
2023-10-26T05:35:07.386Z,98656.31
2023-10-26T05:37:36.924Z,98662.44
2023-10-26T05:40:05.641Z,98657.22
2023-10-26T05:42:32.337Z,98671.19
2023-10-26T05:45:04.115Z,98673.81
2023-10-26T05:47:30.902Z,98677.34
2023-10-26T05:49:57.634Z,98667.97
2023-10-26T05:52:24.245Z,98674.03
2023-10-26T05:54:52.135Z,98664.50
2023-10-26T05:57:18.734Z,98664.47
2023-10-26T05:59:45.482Z,98662.59
2023-10-26T06:02:12.135Z,98667.88
2023-10-26T06:04:38.765Z,98671.44
2023-10-26T06:07:07.564Z,98681.09
2023-10-26T06:09:39.270Z,98680.28
2023-10-26T06:12:06.097Z,98694.97
2023-10-26T06:14:32.792Z,98684.50
2023-10-26T06:16:59.493Z,98693.19
2023-10-26T06:19:33.092Z,98704.31
2023-10-26T06:22:00.157Z,98698.13
2023-10-26T06:24:27.563Z,98704.13
2023-10-26T06:26:54.356Z,98706.72
2023-10-26T06:29:23.340Z,98705.81
2023-10-26T06:31:50.150Z,98704.03
2023-10-26T06:34:19.048Z,98716.97
2023-10-26T06:36:51.080Z,98711.72
2023-10-26T06:39:17.906Z,98705.50
2023-10-26T06:41:44.510Z,98698.47
2023-10-26T06:44:16.236Z,98696.63
2023-10-26T06:46:42.849Z,98695.72
2023-10-26T06:49:22.930Z,98702.56
2023-10-26T06:51:56.071Z,98714.75
2023-10-26T06:54:23.067Z,98710.38
2023-10-26T06:56:49.684Z,98707.69
2023-10-26T06:59:16.320Z,98707.78
2023-10-26T07:02:08.930Z,98713.97
2023-10-26T07:04:30.176Z,98716.78
2023-10-26T07:07:02.554Z,98706.34
2023-10-26T07:09:30.177Z,98705.34
2023-10-26T07:12:01.545Z,98706.72
2023-10-26T07:14:30.759Z,98706.38
2023-10-26T07:16:59.988Z,98709.75
2023-10-26T07:19:26.699Z,98726.19
2023-10-26T07:22:00.570Z,98721.00
2023-10-26T07:24:30.565Z,98719.44
2023-10-26T07:26:57.316Z,98719.50
2023-10-26T07:29:26.497Z,98727.19
2023-10-26T07:31:53.218Z,98724.34
2023-10-26T07:34:19.994Z,98731.13
2023-10-26T07:36:46.692Z,98731.75
2023-10-26T07:39:44.485Z,98728.03
2023-10-26T07:42:07.810Z,98715.66
2023-10-26T07:44:35.784Z,98715.50
2023-10-26T07:47:05.431Z,98713.81
2023-10-26T07:49:34.930Z,98723.63
2023-10-26T07:52:01.635Z,98722.34
2023-10-26T07:54:31.187Z,98723.28
2023-10-26T07:56:58.024Z,98734.00
2023-10-26T07:59:27.024Z,98740.53
2023-10-26T08:01:56.148Z,98742.50
2023-10-26T08:04:25.671Z,98750.47
2023-10-26T08:06:52.366Z,98754.09
2023-10-26T08:09:19.086Z,98762.78
2023-10-26T08:11:48.314Z,98768.84
2023-10-26T08:14:31.052Z,98766.19
2023-10-26T08:17:07.118Z,98762.69
2023-10-26T08:19:36.509Z,98766.16
2023-10-26T08:22:05.750Z,98752.13
2023-10-26T08:24:34.715Z,98748.44
2023-10-26T08:27:07.084Z,98754.31
2023-10-26T08:29:37.471Z,98753.94
2023-10-26T08:32:06.939Z,98760.75
2023-10-26T08:34:38.580Z,98764.31
2023-10-26T08:37:13.710Z,98769.63
2023-10-26T08:39:45.320Z,98775.59
2023-10-26T08:42:17.085Z,98766.53
2023-10-26T08:44:45.126Z,98774.84
2023-10-26T08:47:13.033Z,98759.66
2023-10-26T08:49:39.937Z,98752.31
2023-10-26T08:52:11.443Z,98759.41
2023-10-26T08:54:38.312Z,98754.56
2023-10-26T08:57:11.017Z,98754.03
2023-10-26T08:59:37.744Z,98748.22
2023-10-26T09:02:07.197Z,98745.78
2023-10-26T09:04:36.360Z,98749.59
2023-10-26T09:07:03.232Z,98745.50
2023-10-26T09:09:29.950Z,98744.19
2023-10-26T09:12:04.684Z,98753.72
2023-10-26T09:14:31.328Z,98744.16
2023-10-26T09:16:58.115Z,98754.78
2023-10-26T09:19:28.307Z,98764.78
2023-10-26T09:22:08.659Z,98764.66
2023-10-26T09:24:35.323Z,98764.59
2023-10-26T09:27:02.247Z,98764.88
2023-10-26T09:29:41.664Z,98764.59
2023-10-26T09:32:11.153Z,98774.16
2023-10-26T09:34:41.806Z,98762.38
2023-10-26T09:37:14.187Z,98762.63
2023-10-26T09:39:42.783Z,98770.78
2023-10-26T09:42:13.070Z,98767.06
2023-10-26T09:44:40.121Z,98767.91
2023-10-26T09:47:07.736Z,98759.91
2023-10-26T09:49:39.408Z,98758.53
2023-10-26T09:52:06.685Z,98766.13
2023-10-26T09:54:37.056Z,98755.59
2023-10-26T09:57:22.881Z,98747.91
2023-10-26T10:00:00.653Z,98756.19
2023-10-26T10:02:33.462Z,98757.41
2023-10-26T10:05:00.209Z,98741.56
2023-10-26T10:07:43.010Z,98751.66
2023-10-26T10:10:12.522Z,98753.00
2023-10-26T10:12:40.061Z,98748.41
2023-10-26T10:17:45.355Z,98741.22
2023-10-26T10:20:15.040Z,98752.91
2023-10-26T10:22:41.701Z,98744.59
2023-10-26T10:25:14.244Z,98742.94
2023-10-26T10:27:50.228Z,98727.09
2023-10-26T10:30:19.739Z,98726.94
2023-10-26T10:32:46.507Z,98723.75
2023-10-26T10:35:14.124Z,98720.94
2023-10-26T10:38:05.878Z,98715.16
2023-10-26T10:40:36.137Z,98726.44
2023-10-26T10:43:02.905Z,98722.00
2023-10-26T10:45:38.116Z,98728.31
2023-10-26T10:48:07.962Z,98725.31
2023-10-26T10:50:37.241Z,98706.19
2023-10-26T10:53:05.872Z,98713.50
2023-10-26T10:55:34.889Z,98709.19
2023-10-26T10:58:02.748Z,98708.72
2023-10-26T11:00:42.685Z,98716.16
2023-10-26T11:03:09.657Z,98710.63
2023-10-26T11:05:42.904Z,98713.81
2023-10-26T11:08:09.794Z,98708.34
2023-10-26T11:10:36.549Z,98695.78
2023-10-26T11:13:03.805Z,98697.88
2023-10-26T11:15:34.305Z,98692.63
2023-10-26T11:18:01.858Z,98687.72
2023-10-26T11:20:33.824Z,98687.88
2023-10-26T11:23:00.436Z,98679.00
2023-10-26T11:25:29.916Z,98690.66
2023-10-26T11:27:57.320Z,98693.25
2023-10-26T11:30:23.952Z,98692.38
2023-10-26T11:32:53.008Z,98689.28
2023-10-26T11:35:19.750Z,98693.59
2023-10-26T11:37:57.961Z,98686.31
2023-10-26T11:40:31.428Z,98673.91
2023-10-26T11:43:00.809Z,98674.13
2023-10-26T11:45:28.440Z,98677.00
2023-10-26T11:47:56.197Z,98683.31
2023-10-26T11:50:29.785Z,98681.03
2023-10-26T11:53:02.300Z,98682.50
2023-10-26T11:55:29.571Z,98667.25
2023-10-26T11:57:58.166Z,98681.28
2023-10-26T12:00:27.626Z,98673.13
2023-10-26T12:02:58.069Z,98679.34
2023-10-26T12:05:27.784Z,98672.94
2023-10-26T12:07:54.996Z,98670.00
2023-10-26T12:10:25.175Z,98687.69
2023-10-26T12:12:54.488Z,98680.38
2023-10-26T12:15:21.742Z,98694.31
2023-10-26T12:17:49.453Z,98690.19
2023-10-26T12:20:16.184Z,98699.94
2023-10-26T12:22:42.921Z,98696.41
2023-10-26T12:25:11.809Z,98701.81
2023-10-26T12:28:21.378Z,98703.69
2023-10-26T12:30:30.518Z,98703.44
2023-10-26T12:32:58.181Z,98713.41
2023-10-26T12:35:27.102Z,98715.41
2023-10-26T12:37:56.199Z,98711.16
2023-10-26T12:40:25.288Z,98707.66
2023-10-26T12:42:51.876Z,98705.00
2023-10-26T12:45:19.085Z,98694.28
2023-10-26T12:47:49.315Z,98699.13
2023-10-26T12:50:19.323Z,98693.63
2023-10-26T12:52:48.604Z,98701.66
2023-10-26T12:55:17.816Z,98700.84
2023-10-26T12:57:45.961Z,98692.19
2023-10-26T13:00:12.935Z,98698.88
2023-10-26T13:02:42.070Z,98697.50
2023-10-26T13:05:08.681Z,98688.16
2023-10-26T13:07:35.398Z,98693.50
2023-10-26T13:10:02.147Z,98694.50
2023-10-26T13:12:31.834Z,98699.47
2023-10-26T13:15:04.562Z,98698.41
2023-10-26T13:17:31.769Z,98693.38
2023-10-26T13:19:58.472Z,98691.22
2023-10-26T13:22:25.683Z,98688.19
2023-10-26T13:24:52.374Z,98693.03
2023-10-26T13:27:19.140Z,98691.41
2023-10-26T13:29:46.030Z,98678.81
2023-10-26T13:32:15.524Z,98687.94
2023-10-26T13:34:44.671Z,98683.22
2023-10-26T13:37:11.545Z,98674.63
2023-10-26T13:39:40.886Z,98670.28
2023-10-26T13:42:07.587Z,98681.97
2023-10-26T13:44:34.368Z,98686.00
2023-10-26T13:47:01.069Z,98692.28
2023-10-26T13:49:27.812Z,98689.41
2023-10-26T13:51:54.473Z,98704.81
2023-10-26T13:54:22.388Z,98704.69
2023-10-26T13:56:49.107Z,98688.34
2023-10-26T13:59:17.963Z,98700.34
2023-10-26T14:01:47.209Z,98671.03
2023-10-26T14:04:15.525Z,98675.00
2023-10-26T14:06:42.242Z,98672.34
2023-10-26T14:09:08.915Z,98679.94
2023-10-26T14:11:35.681Z,98677.19
2023-10-26T14:14:02.285Z,98677.88
2023-10-26T14:16:31.175Z,98690.16
2023-10-26T14:19:00.490Z,98689.97
2023-10-26T14:21:27.803Z,98689.31
2023-10-26T14:23:54.477Z,98687.53
2023-10-26T14:26:23.674Z,98682.94
2023-10-26T14:28:50.325Z,98674.09
2023-10-26T14:31:17.960Z,98680.94
2023-10-26T14:33:49.042Z,98682.50
2023-10-26T14:36:15.648Z,98683.69
2023-10-26T14:38:44.769Z,98693.28
2023-10-26T14:41:16.373Z,98694.16
2023-10-26T14:43:43.028Z,98677.09
2023-10-26T14:46:12.892Z,98666.09
2023-10-26T14:48:39.558Z,98676.59
2023-10-26T14:51:08.938Z,98692.69
2023-10-26T14:53:35.581Z,98684.03
2023-10-26T14:56:02.893Z,98683.97
2023-10-26T14:58:31.892Z,98689.06
2023-10-26T15:00:58.738Z,98677.78
2023-10-26T15:03:25.434Z,98676.13
2023-10-26T15:05:52.085Z,98673.09
2023-10-26T15:08:18.781Z,98676.69
2023-10-26T15:10:51.943Z,98682.88
2023-10-26T15:13:19.918Z,98699.81
2023-10-26T15:15:49.548Z,98696.53
2023-10-26T15:18:16.312Z,98696.06
2023-10-26T15:20:45.249Z,98685.13
2023-10-26T15:23:14.464Z,98687.63
2023-10-26T15:25:41.314Z,98693.91
2023-10-26T15:28:08.075Z,98693.19
2023-10-26T15:30:35.057Z,98698.50
2023-10-26T15:33:01.863Z,98699.28
2023-10-26T15:35:28.595Z,98687.16
2023-10-26T15:37:55.693Z,98697.63
2023-10-26T15:40:22.493Z,98702.94
2023-10-26T15:42:49.191Z,98709.09
2023-10-26T15:45:21.931Z,98712.72
2023-10-26T15:47:51.239Z,98712.03
2023-10-26T15:50:18.788Z,98705.00
2023-10-26T15:52:46.332Z,98701.69
2023-10-26T15:55:13.027Z,98701.72
2023-10-26T15:57:39.762Z,98702.56
2023-10-26T16:00:10.505Z,98713.13
2023-10-26T16:02:44.100Z,98708.78
2023-10-26T16:05:13.747Z,98706.16
2023-10-26T16:07:40.562Z,98703.41
2023-10-26T16:10:07.506Z,98702.56
2023-10-26T16:12:36.452Z,98699.19
2023-10-26T16:15:08.175Z,98693.94
2023-10-26T16:17:37.821Z,98697.38
2023-10-26T16:20:04.827Z,98696.53
2023-10-26T16:22:31.493Z,98701.69
2023-10-26T16:24:58.224Z,98705.06
2023-10-26T16:27:28.099Z,98702.34
2023-10-26T16:29:54.830Z,98701.53
2023-10-26T16:32:28.165Z,98703.22
2023-10-26T16:34:57.560Z,98706.00
2023-10-26T16:37:24.327Z,98701.81
2023-10-26T16:39:53.735Z,98698.22
2023-10-26T16:42:20.408Z,98698.13
2023-10-26T16:44:47.130Z,98699.88
2023-10-26T16:47:16.055Z,98701.97
2023-10-26T16:49:42.878Z,98695.25
2023-10-26T16:52:13.941Z,98695.41
2023-10-26T16:54:44.638Z,98685.78
2023-10-26T16:57:13.813Z,98691.03
2023-10-26T16:59:40.644Z,98688.41
2023-10-26T17:02:07.377Z,98684.13
2023-10-26T17:04:34.015Z,98684.13
2023-10-26T17:07:00.719Z,98675.41
2023-10-26T17:09:30.197Z,98671.94
2023-10-26T17:11:59.388Z,98672.72
2023-10-26T17:14:28.348Z,98676.06
2023-10-26T17:16:55.059Z,98657.19
2023-10-26T17:19:22.370Z,98659.91
2023-10-26T17:21:50.580Z,98651.19
2023-10-26T17:24:17.652Z,98658.91
2023-10-26T17:26:44.498Z,98654.59
2023-10-26T17:29:11.144Z,98655.53
2023-10-26T17:31:37.958Z,98644.41
2023-10-26T17:34:04.955Z,98645.28
2023-10-26T17:36:31.591Z,98644.31
2023-10-26T17:39:01.137Z,98643.38
2023-10-26T17:41:27.754Z,98628.47
2023-10-26T17:43:54.452Z,98640.63
2023-10-26T17:46:21.240Z,98638.72
2023-10-26T17:48:48.031Z,98635.25
2023-10-26T17:51:17.139Z,98650.16
2023-10-26T17:53:43.901Z,98642.31
2023-10-26T17:56:16.015Z,98636.22
2023-10-26T17:58:42.894Z,98637.88
2023-10-26T18:01:13.373Z,98634.25
2023-10-26T18:03:40.491Z,98640.16
2023-10-26T18:06:09.350Z,98630.47
2023-10-26T18:08:44.940Z,98624.25
2023-10-26T18:11:18.888Z,98624.06
2023-10-26T18:13:50.249Z,98612.78
2023-10-26T18:16:20.815Z,98619.69
2023-10-26T18:18:47.594Z,98626.59
2023-10-26T18:21:14.520Z,98635.53
2023-10-26T18:23:41.243Z,98639.81
2023-10-26T18:26:09.006Z,98638.00
2023-10-26T18:28:45.053Z,98650.31
2023-10-26T18:31:13.918Z,98653.25
2023-10-26T18:33:41.702Z,98665.47
2023-10-26T18:36:11.921Z,98685.75
2023-10-26T18:38:39.200Z,98672.06
2023-10-26T18:41:09.202Z,98689.25
2023-10-26T18:43:36.284Z,98682.72
2023-10-26T18:46:02.893Z,98695.00
2023-10-26T18:48:30.911Z,98685.66
2023-10-26T18:50:57.585Z,98718.78
2023-10-26T18:53:26.524Z,98699.75
2023-10-26T18:55:53.347Z,98702.38
2023-10-26T18:58:23.034Z,98692.81
2023-10-26T19:00:49.872Z,98691.91
2023-10-26T19:03:17.485Z,98695.38
2023-10-26T19:05:44.622Z,98692.75
2023-10-26T19:08:13.963Z,98687.53
2023-10-26T19:10:40.874Z,98693.56
2023-10-26T19:13:08.867Z,98690.19
2023-10-26T19:15:35.784Z,98691.06
2023-10-26T19:18:04.986Z,98693.66
2023-10-26T19:20:34.459Z,98693.63
2023-10-26T19:23:01.591Z,98696.19
2023-10-26T19:25:28.788Z,98697.03
2023-10-26T19:27:55.854Z,98701.34
2023-10-26T19:30:26.392Z,98698.75
2023-10-26T19:32:54.206Z,98680.47
2023-10-26T19:35:20.979Z,98675.25
2023-10-26T19:37:50.516Z,98678.72
2023-10-26T19:40:17.681Z,98671.72
2023-10-26T19:42:46.899Z,98671.75
2023-10-26T19:45:17.281Z,98657.88
2023-10-26T19:47:46.739Z,98667.47
2023-10-26T19:50:13.641Z,98660.50
2023-10-26T19:52:40.364Z,98663.94
2023-10-26T19:55:08.309Z,98656.09
2023-10-26T19:57:38.243Z,98656.06
2023-10-26T20:00:10.485Z,98650.78
2023-10-26T20:02:40.031Z,98657.72
2023-10-26T20:05:07.155Z,98646.38
2023-10-26T20:07:33.941Z,98640.28
2023-10-26T20:10:00.553Z,98638.50
2023-10-26T20:12:30.121Z,98635.03
2023-10-26T20:15:01.632Z,98641.97
2023-10-26T20:17:28.199Z,98640.22
2023-10-26T20:19:54.819Z,98645.44
2023-10-26T20:22:21.563Z,98647.19
2023-10-26T20:24:50.532Z,98639.34
2023-10-26T20:27:17.177Z,98644.56
2023-10-26T20:29:44.169Z,98634.16
2023-10-26T20:32:13.537Z,98626.34
2023-10-26T20:34:42.556Z,98626.31
2023-10-26T20:37:13.858Z,98624.63
2023-10-26T20:39:44.678Z,98614.22
2023-10-26T20:42:11.607Z,98619.44
2023-10-26T20:44:40.512Z,98619.44
2023-10-26T20:47:07.286Z,98612.44
2023-10-26T20:49:34.029Z,98609.84
2023-10-26T20:52:01.245Z,98608.09
2023-10-26T20:54:28.163Z,98599.41
2023-10-26T20:56:54.780Z,98595.88
2023-10-26T20:59:24.123Z,98588.97
2023-10-26T21:01:50.903Z,98584.63
2023-10-26T21:04:17.704Z,98587.25
2023-10-26T21:06:47.844Z,98576.00
2023-10-26T21:09:15.636Z,98573.41
2023-10-26T21:11:42.800Z,98576.03
2023-10-26T21:14:12.814Z,98588.22
2023-10-26T21:16:41.888Z,98576.09
2023-10-26T21:19:08.661Z,98575.22
2023-10-26T21:21:35.778Z,98567.41
2023-10-26T21:24:02.487Z,98571.75
2023-10-26T21:26:29.085Z,98559.56
2023-10-26T21:28:58.599Z,98551.75
2023-10-26T21:31:27.979Z,98558.66
2023-10-26T21:33:57.165Z,98553.38
2023-10-26T21:36:26.358Z,98556.88
2023-10-26T21:38:52.968Z,98550.78
2023-10-26T21:41:19.678Z,98556.00
2023-10-26T21:43:46.271Z,98550.78
2023-10-26T21:46:15.124Z,98555.97
2023-10-26T21:48:41.828Z,98561.16
2023-10-26T21:51:09.617Z,98568.03
2023-10-26T21:53:36.661Z,98568.03
2023-10-26T21:56:03.333Z,98572.47
2023-10-26T21:58:29.988Z,98583.78
2023-10-26T22:00:57.469Z,98598.53
2023-10-26T22:03:24.250Z,98583.84
2023-10-26T22:05:51.098Z,98586.53
2023-10-26T22:08:20.208Z,98585.66
2023-10-26T22:10:46.889Z,98588.19
2023-10-26T22:13:13.686Z,98580.34
2023-10-26T22:15:40.736Z,98589.00
2023-10-26T22:18:08.615Z,98584.72
2023-10-26T22:20:38.525Z,98580.38
2023-10-26T22:23:05.526Z,98571.66
2023-10-26T22:25:32.189Z,98576.88
2023-10-26T22:27:58.961Z,98576.06
2023-10-26T22:30:28.270Z,98569.13
2023-10-26T22:32:55.034Z,98573.41
2023-10-26T22:35:25.621Z,98574.34
2023-10-26T22:37:54.706Z,98576.09
2023-10-26T22:40:21.504Z,98577.91
2023-10-26T22:42:50.449Z,98581.47
2023-10-26T22:45:19.747Z,98579.69
2023-10-26T22:47:46.590Z,98587.44
2023-10-26T22:50:15.888Z,98573.53
2023-10-26T22:52:42.746Z,98578.63
2023-10-26T22:55:12.579Z,98575.97
2023-10-26T22:57:39.357Z,98574.19
2023-10-26T23:00:07.392Z,98570.66
2023-10-26T23:02:36.489Z,98562.81
2023-10-26T23:05:03.638Z,98561.91
2023-10-26T23:07:35.730Z,98560.16
2023-10-26T23:10:05.996Z,98554.94
2023-10-26T23:12:32.737Z,98557.59
2023-10-26T23:14:59.298Z,98561.09
2023-10-26T23:17:26.012Z,98556.75
2023-10-26T23:19:52.879Z,98561.94
2023-10-26T23:22:19.573Z,98545.38
2023-10-26T23:24:46.393Z,98568.84
2023-10-26T23:27:13.634Z,98560.06
2023-10-26T23:29:40.654Z,98564.38
2023-10-26T23:32:07.326Z,98561.78
2023-10-26T23:34:34.219Z,98553.03
2023-10-26T23:37:03.194Z,98560.81
2023-10-26T23:39:30.325Z,98555.53
2023-10-26T23:41:59.392Z,98545.94
2023-10-26T23:44:28.556Z,98545.97
2023-10-26T23:46:55.552Z,98545.16
2023-10-26T23:49:24.892Z,98542.53
2023-10-26T23:51:54.672Z,98544.19
2023-10-26T23:54:23.482Z,98535.41
2023-10-26T23:56:50.220Z,98536.25
2023-10-26T23:59:19.622Z,98529.22
